Time;durP1;ratioP1;P1;durP2;ratioP2;P2;SDS_P1;SDS_P2;PMS_P1;PMS_P2;Temp;Humidity;BMP_temperature;BMP_pressure;BME280_temperature;BME280_humidity;BME280_pressure;Samples;Min_cycle;Max_cycle;Signal;HPM_P1;HPM_P2
2023/10/06 00:00:40;;;;;;;;;35.25;32.25;;;;;15.28;49.83;100187.25;5128429;27;8853;-71
2023/10/06 00:03:29;;;;;;;;;35.60;33.00;;;;;15.19;49.13;100191.91;5128669;27;8849;-71
2023/10/06 00:05:58;;;;;;;;;36.50;33.75;;;;;14.91;49.60;100186.56;5127361;27;8830;-71
2023/10/06 00:08:32;;;;;;;;;37.50;34.00;;;;;14.85;49.75;100184.09;5110429;27;9662;-71
2023/10/06 00:11:11;;;;;;;;;40.25;36.00;;;;;14.83;50.03;100181.50;5128265;27;8920;-71
2023/10/06 00:13:51;;;;;;;;;38.25;34.50;;;;;14.85;49.96;100200.84;5128918;27;8849;-71
2023/10/06 00:16:22;;;;;;;;;47.75;39.25;;;;;14.51;49.31;100195.56;5128329;27;8842;-72
2023/10/06 00:18:53;;;;;;;;;49.50;39.25;;;;;14.49;50.25;100194.75;5128367;27;9660;-71
2023/10/06 00:21:22;;;;;;;;;51.00;43.25;;;;;13.94;50.92;100194.41;5111368;27;8849;-73
2023/10/06 00:23:51;;;;;;;;;49.00;42.00;;;;;13.66;52.02;100202.06;5132385;27;8845;-71
2023/10/06 00:26:20;;;;;;;;;50.75;41.25;;;;;13.93;51.15;100197.94;5131940;27;8923;-70
2023/10/06 00:28:52;;;;;;;;;53.50;44.50;;;;;14.04;50.33;100203.81;5113890;27;9543;-71
2023/10/06 00:31:24;;;;;;;;;55.25;45.50;;;;;13.82;51.13;100202.59;5113636;27;8822;-71
2023/10/06 00:33:53;;;;;;;;;56.25;45.75;;;;;13.70;51.25;100201.09;5113510;27;8833;-71
2023/10/06 00:36:29;;;;;;;;;57.25;47.75;;;;;13.79;50.81;100197.34;5129500;27;8845;-70
2023/10/06 00:38:57;;;;;;;;;57.75;47.25;;;;;13.98;50.14;100203.09;5096542;27;8861;-70
2023/10/06 00:41:28;;;;;;;;;53.75;45.25;;;;;14.10;49.97;100194.88;5063360;27;8884;-71
2023/10/06 00:43:57;;;;;;;;;54.25;45.00;;;;;14.15;50.16;100210.59;5113618;27;8884;-71
2023/10/06 00:46:28;;;;;;;;;55.25;46.00;;;;;14.30;49.77;100194.38;5131780;27;8829;-72
2023/10/06 00:48:59;;;;;;;;;52.75;44.00;;;;;14.40;49.70;100200.28;5078875;27;8830;-70
2023/10/06 00:51:29;;;;;;;;;47.25;40.75;;;;;14.52;49.54;100193.78;5069989;28;8855;-71
2023/10/06 00:53:59;;;;;;;;;53.25;45.00;;;;;14.60;49.23;100197.09;5088387;28;8944;-72
2023/10/06 00:56:28;;;;;;;;;51.75;43.75;;;;;14.68;49.23;100203.91;5071635;28;9600;-72
2023/10/06 00:58:59;;;;;;;;;54.00;43.00;;;;;14.75;49.05;100196.69;5088107;28;8956;-71
2023/10/06 01:01:29;;;;;;;;;54.00;42.75;;;;;14.80;48.92;100197.44;5071117;28;8859;-71
2023/10/06 01:04:01;;;;;;;;;55.25;46.00;;;;;14.83;48.78;100201.81;5054403;28;8964;-71
2023/10/06 01:06:35;;;;;;;;;55.50;45.25;;;;;14.81;48.46;100203.59;5076240;28;8824;-71
2023/10/06 01:09:13;;;;;;;;;57.00;46.25;;;;;14.82;48.24;100203.56;5088001;28;8979;-73
2023/10/06 01:11:45;;;;;;;;;61.75;49.00;;;;;14.80;48.49;100197.44;5071002;28;8835;-71
2023/10/06 01:14:21;;;;;;;;;54.50;45.00;;;;;14.77;48.36;100200.19;5087944;28;8836;-71
2023/10/06 01:16:53;;;;;;;;;59.00;48.50;;;;;14.72;48.56;100202.09;5070981;28;8848;-72
2023/10/06 01:19:27;;;;;;;;;60.75;49.00;;;;;14.66;48.52;100205.75;5087954;28;8997;-71
2023/10/06 01:21:56;;;;;;;;;61.00;50.00;;;;;14.46;49.11;100203.63;5086731;28;8900;-71
2023/10/06 01:24:27;;;;;;;;;63.50;52.00;;;;;14.34;49.19;100209.25;5087746;28;8842;-71
2023/10/06 01:26:59;;;;;;;;;61.00;49.75;;;;;14.37;49.34;100208.28;5087648;28;8827;-71
2023/10/06 01:29:30;;;;;;;;;62.25;50.50;;;;;14.36;49.38;100199.50;5087611;27;8846;-70
2023/10/06 01:32:05;;;;;;;;;59.25;49.25;;;;;13.98;50.72;100205.72;5111739;27;8850;-71
2023/10/06 01:34:35;;;;;;;;;61.25;49.75;;;;;14.13;50.38;100201.84;5131171;27;9026;-72
2023/10/06 01:37:04;;;;;;;;;63.75;52.00;;;;;14.14;50.20;100206.25;5093307;27;8930;-71
2023/10/06 01:39:35;;;;;;;;;65.50;51.50;;;;;14.01;50.96;100205.66;5112593;27;8964;-70
2023/10/06 01:42:07;;;;;;;;;63.00;50.25;;;;;14.09;50.70;100204.59;5078278;27;8849;-71
2023/10/06 01:44:36;;;;;;;;;64.00;52.25;;;;;14.07;50.99;100200.22;5130767;27;8841;-72
2023/10/06 01:47:05;;;;;;;;;61.50;50.00;;;;;14.10;51.20;100202.81;5112545;27;8921;-73
2023/10/06 01:49:35;;;;;;;;;63.75;52.25;;;;;14.03;51.25;100206.50;5112124;27;8837;-70
2023/10/06 01:52:05;;;;;;;;;62.25;50.75;;;;;13.87;51.96;100195.44;5110723;27;9695;-71
2023/10/06 01:54:38;;;;;;;;;62.25;51.00;;;;;13.82;52.30;100186.75;5130803;27;8845;-71
2023/10/06 01:57:10;;;;;;;;;59.75;49.50;;;;;13.71;52.35;100184.31;5112049;27;8921;-71
2023/10/06 01:59:38;;;;;;;;;62.50;50.00;;;;;13.61;52.76;100182.81;5112241;27;8945;-71
2023/10/06 02:02:12;;;;;;;;;64.25;52.75;;;;;13.59;52.89;100189.91;5130059;27;10093;-72
2023/10/06 02:04:45;;;;;;;;;65.75;52.25;;;;;13.77;52.68;100183.31;5130480;27;8826;-73
2023/10/06 02:07:15;;;;;;;;;60.75;50.25;;;;;13.81;52.20;100177.06;5110884;27;8891;-72
2023/10/06 02:09:45;;;;;;;;;63.50;49.75;;;;;13.88;52.36;100176.91;5130170;27;8857;-72
2023/10/06 02:12:15;;;;;;;;;61.50;50.25;;;;;13.98;52.06;100174.91;5111972;27;8853;-72
2023/10/06 02:14:47;;;;;;;;;60.25;46.75;;;;;14.04;52.22;100174.75;5112203;27;8880;-72
2023/10/06 02:17:16;;;;;;;;;59.75;48.75;;;;;14.02;52.16;100171.28;5130068;27;8919;-71
2023/10/06 02:19:45;;;;;;;;;56.25;46.25;;;;;13.80;52.77;100181.50;5111553;27;8869;-72
2023/10/06 02:22:14;;;;;;;;;57.25;47.25;;;;;13.58;53.38;100181.13;5076115;27;8837;-71
2023/10/06 02:24:45;;;;;;;;;58.25;46.50;;;;;13.58;53.62;100186.41;5111879;27;8919;-70
2023/10/06 02:27:16;;;;;;;;;60.25;48.00;;;;;13.48;53.58;100191.00;5129628;27;9625;-73
2023/10/06 02:29:45;;;;;;;;;57.00;47.25;;;;;13.70;53.17;100193.16;5111624;27;8949;-70
2023/10/06 02:32:16;;;;;;;;;54.25;44.50;;;;;13.87;52.47;100195.44;5111142;27;8933;-71
2023/10/06 02:34:45;;;;;;;;;55.25;46.25;;;;;13.97;52.34;100194.31;5129841;27;8865;-71
2023/10/06 02:37:21;;;;;;;;;55.75;46.25;;;;;14.07;51.88;100195.81;5030685;28;8851;-72
2023/10/06 02:39:50;;;;;;;;;52.00;43.00;;;;;14.15;51.46;100195.63;5065950;28;8879;-72
2023/10/06 02:42:21;;;;;;;;;52.50;44.25;;;;;14.23;51.29;100195.44;5049194;28;8902;-71
2023/10/06 02:44:51;;;;;;;;;55.25;45.50;;;;;14.28;51.18;100199.69;5033168;28;9655;-71
2023/10/06 02:47:21;;;;;;;;;54.75;45.50;;;;;14.35;51.13;100195.09;5065487;28;9707;-71
2023/10/06 02:49:59;;;;;;;;;52.00;43.25;;;;;14.40;50.77;100195.84;5065873;28;8860;-72
2023/10/06 02:52:37;;;;;;;;;56.75;45.25;;;;;14.42;50.89;100194.03;5047937;28;8962;-71
2023/10/06 02:55:08;;;;;;;;;52.00;43.25;;;;;14.46;50.70;100194.81;5048955;28;8860;-72
2023/10/06 02:57:42;;;;;;;;;54.25;45.25;;;;;14.50;50.55;100198.25;5048816;28;8924;-73
2023/10/06 03:00:30;;;;;;;;;55.00;44.75;;;;;14.53;50.48;100198.16;5065420;28;9594;-73
2023/10/06 03:03:03;;;;;;;;;53.75;43.75;;;;;14.54;50.44;100189.31;5024067;28;8868;-70
2023/10/06 03:05:33;;;;;;;;;54.00;45.00;;;;;14.55;50.17;100191.06;5065568;28;8984;-70
2023/10/06 03:08:08;;;;;;;;;52.00;43.25;;;;;14.45;50.09;100195.72;5085481;27;8903;-71
2023/10/06 03:10:43;;;;;;;;;55.00;45.50;;;;;14.45;50.62;100193.06;5129308;27;8929;-72
2023/10/06 03:13:23;;;;;;;;;52.75;43.75;;;;;14.48;50.51;100193.88;5129093;27;8842;-72
2023/10/06 03:15:52;;;;;;;;;55.00;44.50;;;;;14.46;50.24;100190.41;5110983;27;8932;-71
2023/10/06 03:18:22;;;;;;;;;55.25;45.75;;;;;14.45;50.27;100195.72;5110885;27;8852;-72
2023/10/06 03:20:53;;;;;;;;;29.75;26.50;;;;;14.43;50.33;100192.25;5093947;27;8942;-72
2023/10/06 03:23:26;;;;;;;;;66.67;53.00;;;;;14.44;50.25;100192.22;5109761;27;8853;-73
2023/10/06 03:25:56;;;;;;;;;58.00;47.75;;;;;14.45;50.06;100190.44;5110852;27;9101;-73
2023/10/06 03:28:32;;;;;;;;;54.75;45.75;;;;;14.45;49.93;100186.03;5128954;27;9610;-73
2023/10/06 03:31:21;;;;;;;;;50.25;42.50;;;;;14.45;49.99;100190.44;5110437;27;8830;-72
2023/10/06 03:33:54;;;;;;;;;52.00;43.00;;;;;14.40;49.96;100193.22;5109402;27;9559;-71
2023/10/06 03:36:36;;;;;;;;;52.00;43.00;;;;;14.45;49.85;100187.78;5127362;27;8938;-72
2023/10/06 03:39:10;;;;;;;;;50.75;42.25;;;;;14.45;49.82;100185.13;5111208;27;8869;-73
2023/10/06 03:41:44;;;;;;;;;48.25;41.75;;;;;14.46;49.83;100177.16;5110046;27;8956;-71
2023/10/06 03:44:18;;;;;;;;;90.25;85.50;;;;;14.43;49.80;100179.91;5076116;27;8879;-71
2023/10/06 03:46:49;;;;;;;;;57.75;46.25;;;;;14.27;49.87;100182.06;5126718;27;10755;-71
2023/10/06 03:49:19;;;;;;;;;52.00;43.75;;;;;14.19;49.95;100183.22;5128661;27;8846;-72
2023/10/06 03:51:47;;;;;;;;;54.75;44.00;;;;;14.22;49.68;100177.81;5128496;27;8845;-70
2023/10/06 03:54:16;;;;;;;;;53.75;44.50;;;;;14.09;49.97;100180.78;5076176;27;8810;-71
2023/10/06 03:56:49;;;;;;;;;53.50;44.25;;;;;14.08;49.88;100179.03;5079245;27;8983;-71
2023/10/06 03:59:21;;;;;;;;;51.50;43.50;;;;;14.17;49.83;100179.69;5079701;27;8829;-72
2023/10/06 04:01:51;;;;;;;;;56.50;45.25;;;;;14.18;49.57;100181.47;5132515;27;8880;-71
2023/10/06 04:04:22;;;;;;;;;51.00;41.50;;;;;14.26;49.67;100179.47;5042448;28;8848;-72
2023/10/06 04:06:54;;;;;;;;;57.25;46.00;;;;;14.28;49.46;100182.94;5059804;28;8888;-72
2023/10/06 04:09:27;;;;;;;;;68.33;55.33;;;;;14.34;49.34;100181.91;5130215;27;8875;-71
2023/10/06 04:11:58;;;;;;;;;60.75;49.00;;;;;14.38;49.33;100184.44;5132541;27;9015;-72
2023/10/06 04:14:31;;;;;;;;;55.50;46.00;;;;;14.42;49.20;100180.81;5132954;27;8833;-72
2023/10/06 04:17:05;;;;;;;;;54.25;45.25;;;;;14.46;49.09;100171.03;5046525;27;8846;-72
2023/10/06 04:19:35;;;;;;;;;49.50;42.50;;;;;14.43;48.69;100171.09;5112183;28;8863;-72
2023/10/06 04:22:03;;;;;;;;;50.75;42.25;;;;;14.35;48.53;100160.72;5111480;28;8878;-71
2023/10/06 04:24:32;;;;;;;;;53.75;42.25;;;;;13.86;49.73;100164.63;5075778;28;8870;-72
2023/10/06 04:27:01;;;;;;;;;48.25;41.75;;;;;13.86;49.92;100170.78;5111528;28;9581;-71
2023/10/06 04:29:35;;;;;;;;;52.50;44.50;;;;;13.86;50.23;100186.63;5093362;28;8855;-71
2023/10/06 04:32:04;;;;;;;;;59.25;46.75;;;;;14.01;50.15;100192.44;5115786;27;8838;-71
2023/10/06 04:34:36;;;;;;;;;65.00;52.50;;;;;14.10;49.74;100192.22;5111698;28;8835;-72
2023/10/06 04:37:07;;;;;;;;;53.25;45.50;;;;;14.19;49.42;100199.06;5042062;28;8956;-71
2023/10/06 04:39:39;;;;;;;;;51.50;43.50;;;;;14.24;49.04;100197.16;5111347;28;8871;-72
2023/10/06 04:42:08;;;;;;;;;50.00;42.00;;;;;14.26;49.19;100193.59;5111360;28;8885;-73
2023/10/06 04:44:38;;;;;;;;;52.25;43.75;;;;;14.31;48.99;100206.66;5111520;28;8854;-72
2023/10/06 04:47:09;;;;;;;;;52.50;42.50;;;;;14.32;49.15;100207.53;5122231;27;8861;-73
2023/10/06 04:49:38;;;;;;;;;55.25;46.00;;;;;14.32;49.20;100212.81;5131016;27;8833;-72
2023/10/06 04:52:07;;;;;;;;;50.75;43.00;;;;;14.26;49.56;100216.50;5131060;27;8845;-73
2023/10/06 04:54:35;;;;;;;;;54.00;45.50;;;;;14.28;49.38;100220.84;5094378;27;8822;-72
2023/10/06 04:57:04;;;;;;;;;51.25;42.25;;;;;14.31;49.28;100230.47;5131296;27;8841;-72
2023/10/06 04:59:33;;;;;;;;;49.75;41.25;;;;;14.28;49.23;100239.38;5131447;27;8830;-73
2023/10/06 05:02:03;;;;;;;;;46.25;39.75;;;;;14.28;49.39;100241.13;5130311;27;8846;-71
2023/10/06 05:04:32;;;;;;;;;48.50;39.75;;;;;14.27;49.56;100252.63;5072764;28;9584;-72
2023/10/06 05:07:01;;;;;;;;;44.50;37.25;;;;;14.28;49.34;100260.53;5122466;27;8855;-75
2023/10/06 05:09:30;;;;;;;;;44.00;36.75;;;;;14.26;49.25;100256.16;5134046;27;8837;-74
2023/10/06 05:11:59;;;;;;;;;42.00;36.25;;;;;14.26;49.15;100267.63;5150889;27;8982;-74
2023/10/06 05:14:28;;;;;;;;;44.00;37.50;;;;;14.30;48.99;100276.34;5143142;27;8841;-74
2023/10/06 05:16:57;;;;;;;;;42.50;35.00;;;;;14.33;49.08;100276.25;5094851;27;8860;-74
2023/10/06 05:19:27;;;;;;;;;41.50;36.50;;;;;14.36;48.86;100284.13;5129458;27;8825;-75
2023/10/06 05:21:56;;;;;;;;;45.75;39.00;;;;;14.32;49.29;100279.81;5130605;27;8850;-74
2023/10/06 05:24:25;;;;;;;;;48.25;37.25;;;;;14.36;49.23;100286.78;5078305;27;8857;-76
2023/10/06 05:26:54;;;;;;;;;38.50;32.50;;;;;14.39;49.12;100291.97;5131073;27;8865;-75
2023/10/06 05:29:25;;;;;;;;;37.50;34.00;;;;;14.36;49.31;100297.34;5078205;27;8868;-72
2023/10/06 05:31:54;;;;;;;;;39.50;35.00;;;;;14.40;49.40;100298.16;5112571;27;8861;-74
2023/10/06 05:34:24;;;;;;;;;45.75;37.50;;;;;14.43;49.41;100298.06;5130166;27;8874;-75
2023/10/06 05:36:54;;;;;;;;;41.50;34.50;;;;;14.48;49.05;100307.63;5112731;27;8909;-74
2023/10/06 05:39:24;;;;;;;;;30.20;30.20;;;;;14.01;49.79;100308.75;5094920;27;8853;-74
2023/10/06 05:41:52;;;;;;;;;36.00;34.00;;;;;13.59;51.04;100319.34;5112394;27;8849;-73
2023/10/06 05:44:22;;;;;;;;;41.00;36.50;;;;;13.75;51.30;100323.41;5061284;27;8884;-73
2023/10/06 05:46:50;;;;;;;;;42.00;37.00;;;;;13.66;51.32;100326.25;5123434;27;8974;-75
2023/10/06 05:49:21;;;;;;;;;35.50;33.00;;;;;13.96;50.76;100326.50;5088759;27;8883;-76
2023/10/06 05:51:49;;;;;;;;;37.50;31.75;;;;;14.06;50.73;100322.75;5130355;27;9024;-73
2023/10/06 05:54:21;;;;;;;;;34.60;31.40;;;;;14.22;50.09;100320.59;5111487;27;8865;-73
2023/10/06 05:56:53;;;;;;;;;36.75;31.25;;;;;14.06;50.26;100328.91;5130539;27;8833;-76
2023/10/06 05:59:22;;;;;;;;;35.25;33.00;;;;;14.13;50.39;100328.75;5129888;27;8883;-74
2023/10/06 06:01:56;;;;;;;;;39.00;34.25;;;;;14.13;50.11;100332.28;5077102;27;8933;-72
2023/10/06 06:04:27;;;;;;;;;34.75;32.00;;;;;14.28;49.76;100339.84;5109078;27;8841;-74
2023/10/06 06:07:02;;;;;;;;;14.50;10.00;;;;;14.54;49.71;100342.78;5109364;28;8978;-73
2023/10/06 06:09:33;;;;;;;;;32.80;31.80;;;;;14.63;49.16;100339.91;5109336;28;8824;-76
2023/10/06 06:12:02;;;;;;;;;35.00;31.60;;;;;14.48;49.13;100341.16;5109504;28;8894;-73
2023/10/06 06:14:33;;;;;;;;;31.00;30.75;;;;;14.60;49.21;100346.16;5109446;28;8842;-76
2023/10/06 06:17:02;;;;;;;;;35.00;31.25;;;;;14.81;48.73;100349.16;5116747;27;8859;-71
2023/10/06 06:19:32;;;;;;;;;39.75;34.00;;;;;14.86;48.53;100347.28;5125699;27;8838;-72
2023/10/06 06:22:05;;;;;;;;;38.50;33.75;;;;;14.93;48.49;100342.72;5134127;27;8971;-68
2023/10/06 06:24:38;;;;;;;;;34.00;31.60;;;;;15.12;48.30;100338.66;5149875;27;8978;-71
2023/10/06 06:27:09;;;;;;;;;30.20;29.40;;;;;15.27;47.58;100344.44;5128978;27;8846;-68
2023/10/06 06:29:38;;;;;;;;;30.60;28.80;;;;;15.36;47.55;100345.06;5128781;27;8849;-69
2023/10/06 06:32:11;;;;;;;;;29.80;28.80;;;;;15.33;47.03;100342.47;5129383;27;8845;-74
2023/10/06 06:34:42;;;;;;;;;27.20;26.80;;;;;15.47;47.33;100347.38;5086512;27;8835;-73
2023/10/06 06:37:12;;;;;;;;;31.80;30.60;;;;;15.54;46.79;100356.03;5153322;27;8855;-73
2023/10/06 06:39:44;;;;;;;;;28.40;27.40;;;;;15.65;46.62;100361.94;5154478;27;8828;-73
2023/10/06 06:42:13;;;;;;;;;31.40;30.20;;;;;15.76;46.54;100358.97;5131590;27;8970;-74
2023/10/06 06:44:47;;;;;;;;;25.60;24.80;;;;;15.84;46.29;100368.41;5130934;27;8863;-74
2023/10/06 06:47:17;;;;;;;;;31.20;29.40;;;;;15.87;45.97;100370.13;5150151;27;9603;-75
2023/10/06 06:49:48;;;;;;;;;32.40;27.20;;;;;15.87;46.39;100378.09;5150070;27;8934;-77
2023/10/06 06:52:21;;;;;;;;;30.80;30.20;;;;;15.54;46.94;100386.03;5079591;27;8980;-74
2023/10/06 06:54:53;;;;;;;;;36.60;33.00;;;;;15.44;47.55;100387.22;5110849;27;8893;-76
2023/10/06 06:57:21;;;;;;;;;30.20;29.20;;;;;15.53;47.45;100384.34;5083747;27;8877;-73
2023/10/06 06:59:52;;;;;;;;;32.40;30.20;;;;;15.49;46.75;100382.69;5149605;27;8850;-75
2023/10/06 07:02:22;;;;;;;;;33.40;30.20;;;;;15.30;47.76;100381.44;5150156;27;8873;-76
2023/10/06 07:04:51;;;;;;;;;35.60;32.20;;;;;15.56;47.72;100384.22;5097478;27;8866;-74
2023/10/06 07:07:20;;;;;;;;;39.00;34.80;;;;;15.62;47.37;100383.22;5149930;27;8893;-78
2023/10/06 07:09:49;;;;;;;;;32.40;31.40;;;;;15.79;47.09;100380.97;5138575;27;8873;-74
2023/10/06 07:12:23;;;;;;;;;30.60;25.20;;;;;15.97;46.79;100390.16;5108719;28;8846;-76
2023/10/06 07:14:52;;;;;;;;;32.20;28.20;;;;;16.09;46.43;100390.69;5114120;27;8849;-74
2023/10/06 07:17:22;;;;;;;;;29.00;28.20;;;;;16.14;45.95;100383.47;5129467;27;8933;-74
2023/10/06 07:19:52;;;;;;;;;27.80;26.40;;;;;16.15;45.99;100383.44;5092453;27;8838;-73
2023/10/06 07:22:26;;;;;;;;;31.80;30.40;;;;;15.76;46.71;100382.84;5129166;27;8945;-74
2023/10/06 07:24:56;;;;;;;;;31.20;29.20;;;;;16.08;46.45;100388.94;5127396;27;8929;-73
2023/10/06 07:27:26;;;;;;;;;35.50;32.75;;;;;16.26;46.04;100388.38;5129129;27;8842;-75
2023/10/06 07:29:57;;;;;;;;;33.75;32.00;;;;;16.40;45.46;100378.22;5128050;27;8829;-75
2023/10/06 07:32:25;;;;;;;;;29.40;27.40;;;;;16.64;44.97;100386.31;5121623;27;9607;-73
2023/10/06 07:34:55;;;;;;;;;30.40;28.20;;;;;16.79;44.63;100376.97;5072277;27;8874;-75
2023/10/06 07:37:23;;;;;;;;;26.00;23.40;;;;;16.89;44.14;100375.78;5130900;27;8858;-74
2023/10/06 07:39:53;;;;;;;;;40.50;34.25;;;;;16.94;44.06;100380.91;5129301;27;8947;-74
2023/10/06 07:42:21;;;;;;;;;33.25;31.50;;;;;17.03;43.91;100375.28;5135554;27;8861;-74
2023/10/06 07:44:52;;;;;;;;;30.80;29.80;;;;;17.14;43.65;100378.44;5114240;27;8838;-75
2023/10/06 07:47:24;;;;;;;;;32.40;30.00;;;;;17.12;43.52;100379.44;5083971;28;8904;-74
2023/10/06 07:49:54;;;;;;;;;33.20;30.80;;;;;17.17;43.29;100383.66;5021232;28;8850;-74
2023/10/06 07:52:22;;;;;;;;;31.60;30.20;;;;;17.28;43.22;100370.00;5100616;28;8858;-75
2023/10/06 07:54:51;;;;;;;;;33.20;30.60;;;;;17.09;43.05;100379.50;5105595;28;8836;-75
2023/10/06 07:57:20;;;;;;;;;31.80;29.60;;;;;17.22;43.17;100386.13;5096177;28;8866;-75
2023/10/06 07:59:49;;;;;;;;;29.20;27.00;;;;;17.27;43.07;100373.59;5099668;28;8859;-74
2023/10/06 08:02:19;;;;;;;;;29.00;28.60;;;;;17.12;43.04;100388.25;5103453;28;8835;-75
2023/10/06 08:04:48;;;;;;;;;30.20;25.80;;;;;17.26;42.55;100390.44;5105713;28;8856;-74
2023/10/06 08:07:17;;;;;;;;;36.60;31.00;;;;;17.37;42.44;100384.75;5071211;28;8838;-73
2023/10/06 08:09:46;;;;;;;;;29.60;27.60;;;;;16.66;43.53;100392.44;5085322;28;8826;-76
2023/10/06 08:12:14;;;;;;;;;39.75;33.00;;;;;16.48;44.16;100395.72;5083865;28;9053;-76
2023/10/06 08:14:43;;;;;;;;;34.75;31.50;;;;;16.66;43.63;100389.78;5092738;28;8831;-75
2023/10/06 08:17:12;;;;;;;;;30.00;28.40;;;;;16.65;42.82;100395.19;5064492;28;8958;-76
2023/10/06 08:19:43;;;;;;;;;31.40;29.80;;;;;16.48;43.95;100395.72;5048113;28;8847;-76
2023/10/06 08:22:11;;;;;;;;;33.00;30.20;;;;;16.85;43.50;100399.81;5065470;28;8860;-77
2023/10/06 08:24:41;;;;;;;;;32.00;30.40;;;;;17.20;42.96;100394.16;5075598;28;8864;-77
2023/10/06 08:27:10;;;;;;;;;22.80;21.20;;;;;16.97;41.93;100402.06;5088245;28;8898;-78
2023/10/06 08:29:41;;;;;;;;;23.40;22.60;;;;;16.51;43.53;100399.16;5098381;28;8857;-76
2023/10/06 08:32:10;;;;;;;;;22.40;21.60;;;;;17.13;42.68;100394.44;5092453;28;8936;-74
2023/10/06 08:34:39;;;;;;;;;24.40;23.20;;;;;17.53;41.25;100388.59;5087058;28;8953;-75
2023/10/06 08:37:11;;;;;;;;;21.40;20.40;;;;;17.48;41.39;100401.19;5078034;28;8855;-75
2023/10/06 08:39:40;;;;;;;;;18.00;17.60;;;;;17.73;40.44;100398.50;5100610;28;9000;-74
2023/10/06 08:42:11;;;;;;;;;14.40;14.00;;;;;17.72;40.03;100396.78;5101471;28;8861;-74
2023/10/06 08:44:41;;;;;;;;;17.60;16.80;;;;;17.87;39.72;100402.44;5090425;28;8855;-75
2023/10/06 08:47:11;;;;;;;;;21.40;21.40;;;;;18.06;38.84;100398.19;5107547;28;9113;-75
2023/10/06 08:49:57;;;;;;;;;16.20;16.00;;;;;17.61;39.48;100396.31;5054505;27;8846;-75
2023/10/06 08:52:32;;;;;;;;;17.00;14.60;;;;;16.34;41.99;100410.25;5129384;27;9131;-76
2023/10/06 08:55:03;;;;;;;;;17.40;16.80;;;;;16.58;41.71;100399.78;5129129;27;8900;-76
2023/10/06 08:57:31;;;;;;;;;15.40;15.00;;;;;17.03;41.10;100404.50;5068147;28;8848;-76
2023/10/06 09:00:06;;;;;;;;;18.00;18.00;;;;;15.88;43.91;100410.75;5051435;28;8840;-77
2023/10/06 09:02:34;;;;;;;;;18.60;18.60;;;;;15.78;43.51;100413.69;5067801;28;10069;-75
2023/10/06 09:05:06;;;;;;;;;18.00;18.00;;;;;15.50;44.72;100410.03;5066526;28;8871;-75
2023/10/06 09:07:36;;;;;;;;;17.80;17.20;;;;;15.12;45.08;100414.59;5064771;28;8875;-74
2023/10/06 09:10:18;;;;;;;;;17.80;16.00;;;;;15.31;45.37;100412.31;5046972;28;8877;-74
2023/10/06 09:13:00;;;;;;;;;19.20;19.00;;;;;15.08;46.44;100411.16;5047892;28;8866;-74
2023/10/06 09:15:30;;;;;;;;;15.00;14.00;;;;;15.44;45.93;100421.69;5054730;28;8888;-75
2023/10/06 09:17:59;;;;;;;;;20.20;19.20;;;;;15.52;46.23;100414.38;5068028;28;8867;-77
2023/10/06 09:20:32;;;;;;;;;22.00;19.00;;;;;15.51;46.45;100412.66;5068186;28;8970;-75
2023/10/06 09:23:03;;;;;;;;;17.00;15.60;;;;;16.14;45.52;100413.50;5066023;28;8996;-75
2023/10/06 09:25:45;;;;;;;;;18.00;18.00;;;;;16.74;44.32;100405.50;5062762;28;8877;-74
2023/10/06 09:28:16;;;;;;;;;20.80;19.80;;;;;16.76;43.56;100407.16;5030635;28;8861;-74
2023/10/06 09:30:51;;;;;;;;;19.40;19.40;;;;;16.50;43.89;100402.69;5015016;28;8854;-75
2023/10/06 09:33:23;;;;;;;;;17.60;17.60;;;;;16.91;42.96;100407.56;5057664;28;8844;-77
2023/10/06 09:36:02;;;;;;;;;19.80;17.00;;;;;16.41;44.38;100402.97;5055684;28;8859;-74
2023/10/06 09:38:32;;;;;;;;;22.00;17.00;;;;;15.98;45.56;100402.50;5092229;28;8847;-75
2023/10/06 09:41:02;;;;;;;;;16.40;13.80;;;;;16.17;45.44;100400.16;5107783;27;8830;-76
2023/10/06 09:43:34;;;;;;;;;20.20;17.00;;;;;16.00;46.16;100407.72;5112176;27;8945;-74
2023/10/06 09:46:09;;;;;;;;;26.40;22.80;;;;;16.12;46.36;100409.19;5138201;27;8966;-74
2023/10/06 09:48:39;;;;;;;;;25.60;24.40;;;;;16.24;46.63;100408.78;5151136;27;8839;-75
2023/10/06 09:51:10;;;;;;;;;19.00;18.40;;;;;15.85;47.88;100406.44;5151409;27;8840;-75
2023/10/06 09:53:43;;;;;;;;;20.00;20.00;;;;;15.91;48.34;100395.63;5150850;27;8871;-77
2023/10/06 09:56:17;;;;;;;;;19.80;19.80;;;;;16.34;47.15;100393.44;5145092;27;8877;-74
2023/10/06 09:58:48;;;;;;;;;23.00;21.00;;;;;16.83;46.39;100397.19;5131386;27;8875;-75
2023/10/06 10:01:22;;;;;;;;;29.00;22.80;;;;;17.18;44.84;100389.81;5131170;27;8861;-75
2023/10/06 10:03:54;;;;;;;;;20.00;18.80;;;;;17.27;44.52;100386.88;5095836;27;8838;-74
2023/10/06 10:06:24;;;;;;;;;20.80;20.40;;;;;16.69;46.07;100402.97;5130083;27;8838;-75
2023/10/06 10:08:54;;;;;;;;;19.60;18.80;;;;;16.18;46.71;100395.72;5112175;27;8850;-77
2023/10/06 10:11:28;;;;;;;;;22.60;21.20;;;;;15.89;48.04;100396.56;5111307;27;9606;-75
2023/10/06 10:14:29;;;;;;;;;26.60;24.80;;;;;15.86;48.56;100392.25;5112179;27;8860;-76
2023/10/06 10:17:13;;;;;;;;;23.20;22.40;;;;;16.42;47.34;100386.13;5061574;28;8905;-74
2023/10/06 10:19:46;;;;;;;;;20.00;19.20;;;;;15.99;47.90;100392.75;5049782;28;9698;-74
2023/10/06 10:22:16;;;;;;;;;19.00;18.00;;;;;15.73;47.98;100390.88;5032686;28;8866;-76
2023/10/06 10:24:46;;;;;;;;;20.20;19.60;;;;;16.06;47.13;100389.00;5033396;28;9000;-77
2023/10/06 10:27:22;;;;;;;;;23.80;20.40;;;;;16.28;46.86;100388.34;5065703;28;9682;-76
2023/10/06 10:29:51;;;;;;;;;22.60;21.00;;;;;16.84;45.92;100379.50;5057583;28;8845;-77
2023/10/06 10:32:24;;;;;;;;;17.00;16.60;;;;;17.07;44.73;100370.75;5064198;28;8850;-79
2023/10/06 10:35:12;;;;;;;;;16.60;15.40;;;;;17.28;44.12;100379.78;5033257;28;8894;-77
2023/10/06 10:37:59;;;;;;;;;22.00;18.80;;;;;16.93;45.07;100366.78;5049413;28;8900;-77
2023/10/06 10:40:47;;;;;;;;;19.20;17.60;;;;;17.07;44.73;100371.59;5066234;28;8960;-77
2023/10/06 10:43:17;;;;;;;;;20.60;19.60;;;;;17.10;44.77;100360.88;5065858;28;8885;-77
2023/10/06 10:45:47;;;;;;;;;17.00;16.00;;;;;17.14;45.06;100361.63;5029290;28;9615;-77
2023/10/06 10:48:18;;;;;;;;;24.80;21.40;;;;;17.17;44.57;100361.50;5063523;28;8846;-77
2023/10/06 10:51:14;;;;;;;;;29.20;26.00;;;;;17.04;44.59;100368.19;5064370;28;8837;-77
2023/10/06 10:53:46;;;;;;;;;24.20;21.80;;;;;16.93;44.75;100357.94;5108717;27;8854;-76
2023/10/06 10:56:35;;;;;;;;;20.40;19.80;;;;;17.25;43.56;100353.25;5133688;27;8857;-78
2023/10/06 10:59:05;;;;;;;;;21.00;20.20;;;;;16.97;43.67;100356.91;5070539;27;8861;-76
2023/10/06 11:01:37;;;;;;;;;17.00;16.20;;;;;17.28;43.38;100353.19;5129021;27;8942;-77
2023/10/06 11:04:29;;;;;;;;;18.00;18.00;;;;;17.69;42.07;100346.34;5149871;27;8843;-79
2023/10/06 11:07:02;;;;;;;;;17.60;16.00;;;;;18.12;41.85;100341.22;5149454;27;8839;-77
2023/10/06 11:09:37;;;;;;;;;18.00;18.00;;;;;18.21;40.98;100348.81;5148931;27;8919;-77
2023/10/06 11:12:20;;;;;;;;;19.40;18.60;;;;;17.50;42.63;100335.53;5088890;28;8860;-76
2023/10/06 11:14:55;;;;;;;;;22.20;18.40;;;;;17.01;43.41;100345.25;5092407;27;8840;-78
2023/10/06 11:17:29;;;;;;;;;16.40;16.40;;;;;16.89;43.25;100338.59;5148959;27;8843;-76
2023/10/06 11:20:12;;;;;;;;;18.40;17.20;;;;;17.06;43.00;100326.50;5139353;27;8846;-76
2023/10/06 11:22:54;;;;;;;;;25.40;23.20;;;;;17.46;42.94;100314.47;5145547;27;8890;-79
2023/10/06 11:25:27;;;;;;;;;23.20;21.40;;;;;17.87;41.18;100317.31;5130673;27;8831;-77
2023/10/06 11:28:00;;;;;;;;;16.60;16.40;;;;;17.40;41.45;100315.56;5131300;27;8977;-77
2023/10/06 11:30:31;;;;;;;;;21.60;21.60;;;;;17.38;41.04;100312.06;5150354;27;9108;-78
2023/10/06 11:33:03;;;;;;;;;24.80;24.40;;;;;17.74;40.76;100308.94;5108826;27;8904;-78
2023/10/06 11:35:33;;;;;;;;;21.20;19.20;;;;;17.75;40.07;100305.38;5126918;27;8968;-75
2023/10/06 11:38:04;;;;;;;;;22.80;21.80;;;;;17.82;40.28;100311.34;5126805;27;8838;-78